Time;durP1;ratioP1;P1;durP2;ratioP2;P2;SDS_P1;SDS_P2;PMS_P1;PMS_P2;Temp;Humidity;BMP_temperature;BMP_pressure;BME280_temperature;BME280_humidity;BME280_pressure;Samples;Min_cycle;Max_cycle;Signal;HPM_P1;HPM_P2
2022/03/08 00:01:17;;;;;;;1.88;1.60;;;17.40;27.20;;;;;;5076201;28;20025;-43
2022/03/08 00:03:43;;;;;;;2.33;1.95;;;17.40;27.30;;;;;;5075423;28;20032;-46
2022/03/08 00:06:10;;;;;;;3.28;1.80;;;17.30;27.20;;;;;;5075786;28;20024;-45
2022/03/08 00:08:36;;;;;;;3.25;1.95;;;17.30;27.30;;;;;;5075458;28;20378;-47
2022/03/08 00:11:04;;;;;;;2.15;1.70;;;17.30;27.30;;;;;;5075291;28;20099;-42
2022/03/08 00:13:30;;;;;;;2.53;1.52;;;17.30;27.70;;;;;;5075670;28;20024;-41
2022/03/08 00:15:56;;;;;;;2.90;1.70;;;17.30;27.40;;;;;;5074688;28;20051;-42
2022/03/08 00:18:22;;;;;;;2.35;1.60;;;17.30;27.30;;;;;;5075996;28;20013;-43
2022/03/08 00:20:48;;;;;;;2.70;1.80;;;17.30;27.30;;;;;;5076787;28;20471;-47
2022/03/08 00:23:15;;;;;;;2.20;1.65;;;17.30;27.30;;;;;;5075509;28;20077;-42
2022/03/08 00:25:40;;;;;;;2.95;1.90;;;17.30;27.30;;;;;;5074590;28;20021;-46
2022/03/08 00:28:06;;;;;;;2.78;1.98;;;17.30;27.30;;;;;;5075351;28;20534;-41
2022/03/08 00:30:33;;;;;;;2.78;1.90;;;17.30;27.40;;;;;;5075463;28;20024;-44
2022/03/08 00:32:59;;;;;;;2.17;1.70;;;17.30;27.40;;;;;;5075224;28;20037;-40
2022/03/08 00:35:25;;;;;;;3.70;2.00;;;17.30;27.40;;;;;;5056977;28;20020;-42
2022/03/08 00:37:51;;;;;;;2.63;2.00;;;17.30;27.30;;;;;;5073262;28;20022;-43
2022/03/08 00:40:18;;;;;;;2.95;2.00;;;17.20;27.40;;;;;;5074639;28;20013;-43
2022/03/08 00:42:45;;;;;;;2.78;2.15;;;17.20;27.40;;;;;;5074468;28;20045;-43
2022/03/08 00:45:11;;;;;;;3.15;2.00;;;17.20;27.40;;;;;;5074862;28;20051;-41
2022/03/08 00:47:39;;;;;;;2.80;2.20;;;17.20;27.40;;;;;;5074679;28;20062;-41
2022/03/08 00:50:06;;;;;;;2.40;1.95;;;17.20;27.40;;;;;;5074351;28;20540;-47
2022/03/08 00:52:32;;;;;;;3.30;1.80;;;17.20;27.40;;;;;;5074127;28;20021;-43
2022/03/08 00:54:58;;;;;;;3.22;1.95;;;17.20;27.40;;;;;;5075225;28;20017;-42
2022/03/08 00:57:24;;;;;;;2.25;1.90;;;17.20;27.40;;;;;;5073979;28;20539;-40
2022/03/08 00:59:51;;;;;;;3.65;2.10;;;17.20;27.40;;;;;;5074619;28;20100;-43
2022/03/08 01:02:17;;;;;;;2.83;2.03;;;17.10;27.40;;;;;;5074758;28;20021;-41
2022/03/08 01:04:43;;;;;;;2.40;1.85;;;17.20;27.40;;;;;;5057581;28;20494;-41
2022/03/08 01:07:10;;;;;;;2.28;1.95;;;17.10;27.50;;;;;;5074541;28;20390;-46
2022/03/08 01:09:36;;;;;;;2.30;1.90;;;17.10;27.50;;;;;;5074305;28;20017;-40
2022/03/08 01:12:02;;;;;;;2.20;1.83;;;17.10;27.40;;;;;;5073848;28;20529;-41
2022/03/08 01:14:29;;;;;;;2.45;1.95;;;17.10;27.50;;;;;;5074391;28;20375;-42
2022/03/08 01:16:55;;;;;;;2.88;2.10;;;17.10;27.50;;;;;;5075332;28;20005;-40
2022/03/08 01:19:21;;;;;;;2.58;2.00;;;17.10;27.50;;;;;;5074163;28;20091;-41
2022/03/08 01:21:47;;;;;;;2.33;2.00;;;17.00;27.50;;;;;;5075149;28;20368;-41
2022/03/08 01:24:13;;;;;;;2.28;1.90;;;17.00;27.50;;;;;;5056905;28;20023;-47
2022/03/08 01:26:39;;;;;;;3.13;2.00;;;17.00;27.50;;;;;;5073739;28;20081;-46
2022/03/08 01:29:04;;;;;;;2.83;2.20;;;17.10;27.60;;;;;;5056223;28;20442;-42
2022/03/08 01:31:30;;;;;;;2.67;2.22;;;17.00;27.50;;;;;;5074312;28;20040;-46
2022/03/08 01:33:57;;;;;;;3.58;2.00;;;17.00;27.50;;;;;;5073082;28;20013;-44
2022/03/08 01:36:23;;;;;;;2.30;1.90;;;17.00;27.50;;;;;;5073796;28;20057;-41
2022/03/08 01:38:49;;;;;;;2.85;2.25;;;17.00;27.60;;;;;;5074264;28;20470;-40
2022/03/08 01:41:15;;;;;;;2.38;2.00;;;17.00;27.60;;;;;;5074429;28;20077;-44
2022/03/08 01:43:40;;;;;;;2.58;2.10;;;17.00;27.60;;;;;;5074043;28;20406;-44
2022/03/08 01:46:07;;;;;;;2.47;1.95;;;17.00;27.60;;;;;;5074828;28;20020;-41
2022/03/08 01:48:34;;;;;;;3.05;2.30;;;17.00;27.60;;;;;;5074743;28;20534;-43
2022/03/08 01:50:59;;;;;;;2.35;2.10;;;16.90;27.60;;;;;;5076916;28;20059;-41
2022/03/08 01:53:25;;;;;;;2.63;2.13;;;16.90;27.60;;;;;;5077914;28;20374;-45
2022/03/08 01:55:52;;;;;;;2.75;1.90;;;16.90;27.60;;;;;;5078314;28;20031;-46
2022/03/08 01:58:18;;;;;;;2.72;2.20;;;16.90;27.60;;;;;;5078118;28;20021;-41
2022/03/08 02:00:44;;;;;;;2.90;2.20;;;16.90;27.60;;;;;;5076335;28;20436;-42
2022/03/08 02:03:09;;;;;;;3.55;2.35;;;16.90;27.70;;;;;;5078258;28;20432;-42
2022/03/08 02:05:35;;;;;;;2.42;2.20;;;16.90;27.70;;;;;;5078658;28;20024;-40
2022/03/08 02:08:01;;;;;;;3.40;2.20;;;16.80;27.70;;;;;;5078043;28;20382;-41
2022/03/08 02:10:27;;;;;;;3.08;2.38;;;16.80;27.60;;;;;;5078548;28;20017;-40
2022/03/08 02:12:53;;;;;;;2.58;2.15;;;16.80;27.60;;;;;;5077769;28;20039;-40
2022/03/08 02:15:21;;;;;;;3.63;2.53;;;16.90;27.60;;;;;;5079767;28;20021;-44
2022/03/08 02:17:47;;;;;;;3.03;2.30;;;16.90;27.60;;;;;;5079156;28;20500;-40
2022/03/08 02:20:13;;;;;;;2.42;2.15;;;16.80;27.60;;;;;;5078998;28;20017;-43
2022/03/08 02:22:40;;;;;;;3.28;2.25;;;16.80;27.60;;;;;;5078883;28;20017;-41
2022/03/08 02:25:06;;;;;;;3.25;2.20;;;16.80;27.70;;;;;;5078675;28;20024;-40
2022/03/08 02:27:32;;;;;;;3.35;2.35;;;16.80;27.60;;;;;;5077409;28;20501;-39
2022/03/08 02:29:59;;;;;;;2.50;2.20;;;16.80;27.70;;;;;;5077703;28;20021;-42
2022/03/08 02:32:24;;;;;;;3.53;2.60;;;16.80;27.70;;;;;;5077341;28;20486;-44
2022/03/08 02:34:50;;;;;;;2.50;2.22;;;16.80;27.60;;;;;;5077239;28;20145;-42
2022/03/08 02:37:17;;;;;;;3.03;2.55;;;16.80;27.70;;;;;;5076272;28;20535;-41
2022/03/08 02:39:44;;;;;;;2.50;2.30;;;16.80;28.10;;;;;;5077266;28;20025;-41
2022/03/08 02:42:09;;;;;;;2.30;2.10;;;16.80;27.70;;;;;;5076482;28;20517;-44
2022/03/08 02:44:36;;;;;;;3.30;2.50;;;16.80;27.70;;;;;;5076301;28;20099;-40
2022/03/08 02:47:03;;;;;;;3.35;2.30;;;16.70;27.70;;;;;;5075953;28;20514;-46
2022/03/08 02:49:30;;;;;;;2.97;2.20;;;16.70;27.70;;;;;;5076523;28;20024;-40
2022/03/08 02:51:56;;;;;;;2.88;2.38;;;16.70;27.70;;;;;;5077267;28;20479;-40
2022/03/08 02:54:23;;;;;;;3.67;2.50;;;16.70;27.70;;;;;;5077166;28;20028;-41
2022/03/08 02:56:49;;;;;;;3.17;2.50;;;16.70;27.70;;;;;;5078223;28;20467;-39
2022/03/08 02:59:21;;;;;;;3.05;2.50;;;16.70;27.70;;;;;;5077019;28;20013;-40
2022/03/08 03:01:47;;;;;;;2.67;2.28;;;16.70;27.70;;;;;;5076324;28;20024;-40
2022/03/08 03:04:13;;;;;;;3.35;2.60;;;16.70;27.70;;;;;;5075924;28;20021;-41
2022/03/08 03:06:39;;;;;;;3.25;2.45;;;16.70;27.70;;;;;;5076920;28;20031;-40
2022/03/08 03:09:05;;;;;;;2.88;2.55;;;16.60;27.70;;;;;;5075628;28;20035;-40
2022/03/08 03:11:31;;;;;;;2.92;2.60;;;16.60;27.70;;;;;;5075591;28;20514;-43
2022/03/08 03:13:59;;;;;;;2.63;2.40;;;16.60;27.80;;;;;;5076860;28;20017;-41
2022/03/08 03:16:26;;;;;;;2.72;2.50;;;16.60;27.70;;;;;;5076803;28;20016;-41
2022/03/08 03:18:52;;;;;;;3.58;2.78;;;16.60;27.70;;;;;;5076033;28;20021;-40
2022/03/08 03:21:18;;;;;;;2.92;2.40;;;16.60;27.80;;;;;;5076723;28;20109;-39
2022/03/08 03:23:43;;;;;;;2.55;2.17;;;16.60;27.80;;;;;;5075467;28;20021;-39
2022/03/08 03:26:10;;;;;;;3.45;2.45;;;16.60;27.80;;;;;;5058594;28;20024;-42
2022/03/08 03:28:36;;;;;;;2.38;2.13;;;16.60;27.80;;;;;;5076238;28;20017;-41
2022/03/08 03:31:02;;;;;;;3.25;2.60;;;16.60;27.80;;;;;;5075693;28;20024;-40
2022/03/08 03:33:28;;;;;;;3.08;2.65;;;16.50;27.70;;;;;;5074370;28;20095;-42
2022/03/08 03:35:54;;;;;;;3.80;2.70;;;16.50;27.70;;;;;;5074513;28;20059;-42
2022/03/08 03:38:20;;;;;;;4.05;2.65;;;16.60;27.80;;;;;;5075376;28;20012;-41
2022/03/08 03:40:45;;;;;;;3.30;2.70;;;16.50;27.80;;;;;;5075071;28;20463;-45
2022/03/08 03:43:11;;;;;;;3.22;2.40;;;16.50;27.70;;;;;;5033606;28;1194041;-43
2022/03/08 03:45:38;;;;;;;3.28;2.72;;;16.50;27.80;;;;;;5075933;28;20074;-39
2022/03/08 03:48:04;;;;;;;3.08;2.58;;;16.50;27.80;;;;;;5075723;28;20027;-42
2022/03/08 03:50:30;;;;;;;2.78;2.47;;;16.50;27.80;;;;;;5075334;28;20025;-43
2022/03/08 03:52:58;;;;;;;3.42;2.60;;;16.50;27.80;;;;;;5075587;28;20098;-40
2022/03/08 03:55:24;;;;;;;3.35;2.58;;;16.50;27.90;;;;;;5074708;28;20017;-41
2022/03/08 03:57:49;;;;;;;3.03;2.55;;;16.50;27.90;;;;;;5075690;28;20017;-39
2022/03/08 04:00:16;;;;;;;3.33;2.72;;;16.50;27.90;;;;;;5075825;28;20099;-40
2022/03/08 04:02:42;;;;;;;3.00;2.45;;;16.40;27.80;;;;;;5075041;28;20043;-41
2022/03/08 04:05:09;;;;;;;2.75;2.33;;;16.50;27.90;;;;;;5058171;28;20017;-41
2022/03/08 04:07:35;;;;;;;3.78;2.78;;;16.50;27.80;;;;;;5073969;28;20028;-39
2022/03/08 04:10:01;;;;;;;3.35;2.58;;;16.50;27.80;;;;;;5075578;28;20090;-39
2022/03/08 04:12:28;;;;;;;3.42;2.78;;;16.40;27.80;;;;;;5074673;28;20039;-41
2022/03/08 04:14:54;;;;;;;3.33;2.50;;;16.40;27.90;;;;;;5074379;28;20020;-39
2022/03/08 04:17:20;;;;;;;3.00;2.58;;;16.40;28.30;;;;;;5074835;28;20017;-41
2022/03/08 04:19:45;;;;;;;3.58;2.70;;;16.40;27.90;;;;;;5076012;28;20064;-45
2022/03/08 04:22:11;;;;;;;2.72;2.50;;;16.40;28.30;;;;;;5075536;28;20045;-42
2022/03/08 04:24:36;;;;;;;3.05;2.50;;;16.40;27.90;;;;;;5074062;28;20040;-41
2022/03/08 04:27:03;;;;;;;2.95;2.65;;;16.40;27.90;;;;;;5075327;28;20035;-42
2022/03/08 04:29:30;;;;;;;3.85;2.92;;;16.30;27.90;;;;;;5075302;28;20111;-43
2022/03/08 04:31:55;;;;;;;4.00;2.90;;;16.40;27.90;;;;;;5074831;28;20031;-44
2022/03/08 04:34:21;;;;;;;3.10;2.65;;;16.30;27.90;;;;;;5057459;28;20475;-42
2022/03/08 04:36:47;;;;;;;3.05;2.35;;;16.30;27.90;;;;;;5075968;28;20013;-44
2022/03/08 04:39:13;;;;;;;2.97;2.67;;;16.30;27.90;;;;;;5075044;28;20021;-43
2022/03/08 04:41:39;;;;;;;4.60;2.83;;;16.30;27.90;;;;;;5074740;28;20056;-40
2022/03/08 04:44:06;;;;;;;3.05;2.70;;;16.30;27.90;;;;;;5074782;28;20020;-40
2022/03/08 04:46:31;;;;;;;3.50;2.72;;;16.30;27.90;;;;;;5073929;28;20029;-39
2022/03/08 04:48:58;;;;;;;3.15;2.75;;;16.30;27.90;;;;;;5074258;28;20024;-41
2022/03/08 04:51:24;;;;;;;3.45;2.60;;;16.40;27.90;;;;;;5075269;28;20021;-39
2022/03/08 04:53:50;;;;;;;3.10;2.80;;;16.50;27.80;;;;;;5074322;28;20027;-40
2022/03/08 04:56:16;;;;;;;3.03;2.22;;;16.60;27.80;;;;;;5075357;28;20115;-40
2022/03/08 04:58:42;;;;;;;3.67;2.90;;;16.60;27.90;;;;;;5073959;28;20092;-39
2022/03/08 05:01:08;;;;;;;2.72;2.42;;;16.80;28.00;;;;;;5075207;28;20027;-41
2022/03/08 05:03:35;;;;;;;3.13;2.40;;;16.90;27.40;;;;;;5074926;28;20467;-40
2022/03/08 05:06:01;;;;;;;2.75;2.30;;;17.00;27.30;;;;;;5073902;28;20462;-42
2022/03/08 05:08:26;;;;;;;3.03;2.42;;;17.10;27.20;;;;;;5073854;28;20004;-43
2022/03/08 05:10:52;;;;;;;2.63;2.42;;;17.10;27.10;;;;;;5075143;28;20017;-40
2022/03/08 05:13:19;;;;;;;3.63;2.72;;;17.30;27.00;;;;;;5073933;28;20029;-45
2022/03/08 05:15:48;;;;;;;3.05;2.40;;;17.40;26.80;;;;;;5074959;28;20008;-40
2022/03/08 05:18:15;;;;;;;3.60;2.45;;;17.50;26.80;;;;;;5074772;28;20044;-40
2022/03/08 05:20:41;;;;;;;3.20;2.42;;;17.60;26.70;;;;;;5075046;28;20066;-39
2022/03/08 05:23:07;;;;;;;3.15;2.40;;;17.70;26.60;;;;;;5073592;28;20012;-40
2022/03/08 05:25:33;;;;;;;3.00;2.53;;;17.70;26.40;;;;;;5073343;28;20471;-44
2022/03/08 05:27:58;;;;;;;2.55;2.30;;;17.90;26.40;;;;;;5074505;28;20056;-41
2022/03/08 05:30:25;;;;;;;4.05;2.60;;;17.90;26.30;;;;;;5073724;28;20021;-42
2022/03/08 05:32:51;;;;;;;3.17;2.20;;;18.10;26.20;;;;;;5075350;28;20028;-42
2022/03/08 05:35:17;;;;;;;4.05;2.60;;;18.20;26.10;;;;;;5075081;28;20096;-42
2022/03/08 05:37:43;;;;;;;2.63;2.30;;;18.20;25.90;;;;;;5075362;28;20044;-45
2022/03/08 05:40:09;;;;;;;3.55;2.45;;;18.40;25.90;;;;;;5057552;28;20467;-46
2022/03/08 05:42:38;;;;;;;3.08;2.22;;;18.50;25.80;;;;;;5074918;28;20105;-41
2022/03/08 05:45:05;;;;;;;3.13;2.40;;;18.60;25.70;;;;;;5074006;28;20501;-43
2022/03/08 05:47:31;;;;;;;2.83;2.38;;;18.70;25.60;;;;;;5073368;28;20028;-44
2022/03/08 05:49:56;;;;;;;4.00;2.40;;;18.80;25.50;;;;;;5073217;28;20050;-42
2022/03/08 05:52:22;;;;;;;3.20;2.35;;;18.90;25.40;;;;;;5075103;28;20043;-43
2022/03/08 05:54:48;;;;;;;2.55;2.20;;;19.00;25.30;;;;;;5074914;28;20071;-46
2022/03/08 05:57:14;;;;;;;3.20;2.28;;;19.10;25.20;;;;;;5074775;28;20017;-39
2022/03/08 05:59:40;;;;;;;2.67;2.30;;;19.20;25.20;;;;;;5074133;28;20023;-41
2022/03/08 06:02:06;;;;;;;2.22;2.00;;;19.30;25.10;;;;;;5074568;28;20024;-44
2022/03/08 06:04:32;;;;;;;2.53;2.20;;;19.30;25.00;;;;;;5056396;28;20434;-41
2022/03/08 06:06:58;;;;;;;2.40;2.03;;;19.40;24.90;;;;;;5074616;28;20034;-40
2022/03/08 06:09:24;;;;;;;3.10;2.35;;;19.50;24.80;;;;;;5074428;28;20029;-39
2022/03/08 06:11:50;;;;;;;3.58;2.47;;;19.60;24.80;;;;;;5074071;28;20023;-42
2022/03/08 06:14:15;;;;;;;3.20;2.20;;;19.70;24.60;;;;;;5074721;28;20020;-41
2022/03/08 06:16:42;;;;;;;2.30;2.10;;;19.80;24.50;;;;;;5074192;28;20027;-41
2022/03/08 06:19:08;;;;;;;2.78;1.90;;;19.90;24.50;;;;;;5073009;28;20471;-42
2022/03/08 06:21:33;;;;;;;2.53;2.00;;;19.90;24.40;;;;;;5074913;28;20020;-43
2022/03/08 06:24:00;;;;;;;3.00;2.28;;;20.00;24.30;;;;;;5056339;28;20471;-44
2022/03/08 06:26:26;;;;;;;2.45;2.20;;;20.10;24.30;;;;;;5074999;28;20017;-41
2022/03/08 06:28:54;;;;;;;3.00;2.20;;;20.20;24.30;;;;;;5074433;28;20498;-40
2022/03/08 06:31:20;;;;;;;2.50;2.25;;;20.20;24.20;;;;;;5073865;28;20025;-40
2022/03/08 06:33:46;;;;;;;2.58;2.13;;;20.30;24.10;;;;;;5073907;28;20013;-39
2022/03/08 06:36:12;;;;;;;3.40;2.50;;;20.50;24.10;;;;;;5074468;28;20371;-42
2022/03/08 06:38:38;;;;;;;2.45;2.00;;;20.50;24.00;;;;;;5077171;28;20377;-40
2022/03/08 06:41:04;;;;;;;2.78;2.20;;;20.50;23.90;;;;;;5079029;28;20512;-41
2022/03/08 06:43:29;;;;;;;2.90;2.42;;;20.70;23.90;;;;;;5077691;28;20052;-44
2022/03/08 06:45:55;;;;;;;2.30;1.92;;;21.00;24.20;;;;;;5076473;28;20517;-44
2022/03/08 06:48:21;;;;;;;2.63;1.98;;;21.60;23.20;;;;;;5076446;28;20020;-40
2022/03/08 06:50:47;;;;;;;2.78;2.08;;;22.00;23.20;;;;;;5060234;28;20013;-39
2022/03/08 06:53:13;;;;;;;3.55;2.17;;;22.10;22.60;;;;;;5079025;28;20060;-40
2022/03/08 06:55:39;;;;;;;3.45;1.95;;;22.40;22.50;;;;;;5077003;28;20498;-39
2022/03/08 06:58:05;;;;;;;2.33;1.88;;;23.00;22.10;;;;;;5076473;28;20084;-42
2022/03/08 07:00:33;;;;;;;2.35;2.05;;;23.40;21.60;;;;;;5075643;28;20023;-39
2022/03/08 07:02:59;;;;;;;2.58;2.10;;;23.50;21.40;;;;;;5075579;28;20020;-40
2022/03/08 07:05:25;;;;;;;2.20;1.90;;;23.30;21.50;;;;;;5077089;28;20094;-42
2022/03/08 07:07:51;;;;;;;3.25;2.15;;;23.20;21.70;;;;;;5076974;28;20070;-43
2022/03/08 07:10:18;;;;;;;2.42;1.70;;;23.10;21.70;;;;;;5076104;28;20044;-41
2022/03/08 07:12:44;;;;;;;2.20;2.00;;;23.20;21.80;;;;;;5074984;28;20029;-44
2022/03/08 07:15:10;;;;;;;2.55;2.00;;;23.20;21.80;;;;;;5075484;28;20028;-43
2022/03/08 07:17:36;;;;;;;3.47;2.25;;;23.30;21.80;;;;;;5073939;28;20040;-41
2022/03/08 07:20:03;;;;;;;2.45;2.20;;;23.30;21.80;;;;;;5074825;28;20005;-41
2022/03/08 07:22:30;;;;;;;2.78;2.00;;;23.30;21.80;;;;;;5073091;28;20027;-46
2022/03/08 07:24:55;;;;;;;4.78;2.25;;;23.40;21.80;;;;;;5074956;28;20081;-40
2022/03/08 07:27:22;;;;;;;5.18;2.28;;;23.40;21.80;;;;;;5077296;28;20025;-40
2022/03/08 07:29:48;;;;;;;2.58;2.10;;;23.40;21.90;;;;;;5042777;28;20018;-42
2022/03/08 07:32:15;;;;;;;4.00;2.15;;;23.40;21.80;;;;;;5079089;28;20089;-47
2022/03/08 07:34:41;;;;;;;4.55;2.20;;;23.50;21.90;;;;;;5080104;28;20036;-41
2022/03/08 07:37:07;;;;;;;4.72;2.13;;;23.60;21.90;;;;;;5078787;28;20471;-46
2022/03/08 07:39:33;;;;;;;5.22;2.00;;;23.70;21.90;;;;;;5078824;28;20113;-40
2022/03/08 07:41:59;;;;;;;7.18;2.13;;;23.70;21.90;;;;;;5078161;28;20499;-46
2022/03/08 07:44:24;;;;;;;7.45;2.28;;;23.80;21.80;;;;;;5077521;28;20356;-45
2022/03/08 07:46:51;;;;;;;4.65;2.33;;;23.90;21.80;;;;;;5075904;28;20021;-40
2022/03/08 07:49:16;;;;;;;4.93;2.60;;;24.00;21.70;;;;;;5075223;28;20038;-44
2022/03/08 07:51:42;;;;;;;5.43;2.40;;;24.10;21.60;;;;;;5075540;28;20031;-41
2022/03/08 07:54:08;;;;;;;9.45;2.50;;;24.20;21.60;;;;;;5076952;28;20012;-40
2022/03/08 07:56:34;;;;;;;3.45;2.45;;;24.30;21.40;;;;;;5077551;28;20017;-39
2022/03/08 07:59:00;;;;;;;4.32;2.50;;;24.40;21.30;;;;;;5078126;28;20054;-40
2022/03/08 08:01:25;;;;;;;6.63;2.30;;;24.50;21.30;;;;;;5075681;28;20387;-40
2022/03/08 08:03:51;;;;;;;5.93;2.70;;;24.50;21.20;;;;;;5078279;28;20096;-40
2022/03/08 08:06:17;;;;;;;5.30;2.47;;;24.60;21.20;;;;;;5077524;28;20431;-40
2022/03/08 08:08:43;;;;;;;4.05;2.35;;;24.60;21.10;;;;;;5075623;28;20467;-41
2022/03/08 08:11:08;;;;;;;4.40;2.60;;;24.70;21.10;;;;;;5076656;28;20023;-45
2022/03/08 08:13:34;;;;;;;4.30;2.47;;;24.80;21.00;;;;;;5076949;28;20097;-40
2022/03/08 08:16:00;;;;;;;6.40;2.83;;;24.90;21.00;;;;;;5074260;28;20052;-40
2022/03/08 08:18:26;;;;;;;6.03;2.78;;;24.90;20.90;;;;;;5075391;28;20016;-40
2022/03/08 08:20:51;;;;;;;12.40;2.80;;;25.00;20.80;;;;;;5076532;28;20021;-41
2022/03/08 08:23:17;;;;;;;5.20;2.50;;;25.10;20.80;;;;;;5076351;28;20017;-43
2022/03/08 08:25:43;;;;;;;7.03;2.92;;;25.20;20.70;;;;;;5076417;28;20123;-43
2022/03/08 08:28:09;;;;;;;7.57;2.50;;;25.30;20.70;;;;;;5074668;28;20021;-40
2022/03/08 08:30:34;;;;;;;7.32;2.80;;;25.40;20.60;;;;;;5075237;28;20491;-41
2022/03/08 08:33:00;;;;;;;5.53;2.63;;;25.40;20.60;;;;;;5076598;28;20032;-40
2022/03/08 08:35:26;;;;;;;13.32;3.53;;;25.40;20.50;;;;;;5075791;28;20040;-40
2022/03/08 08:37:52;;;;;;;10.27;2.90;;;25.50;20.50;;;;;;5075228;28;20041;-45
2022/03/08 08:40:18;;;;;;;11.07;3.13;;;25.60;20.60;;;;;;5075270;28;20032;-39
2022/03/08 08:42:44;;;;;;;8.88;2.63;;;25.60;20.50;;;;;;5075142;28;20044;-40
2022/03/08 08:45:10;;;;;;;14.02;3.45;;;25.60;20.40;;;;;;5073168;28;20368;-40
2022/03/08 08:47:36;;;;;;;8.82;2.90;;;25.60;20.40;;;;;;5074964;28;20016;-47
2022/03/08 08:50:02;;;;;;;9.05;2.97;;;25.70;20.30;;;;;;5075000;28;20086;-40
2022/03/08 08:52:27;;;;;;;10.82;3.10;;;25.80;20.30;;;;;;5075469;28;20103;-43
2022/03/08 08:54:53;;;;;;;9.45;2.85;;;25.80;20.30;;;;;;5075645;28;20012;-45
2022/03/08 08:57:19;;;;;;;9.60;2.63;;;25.90;20.30;;;;;;5074966;28;20017;-46
2022/03/08 08:59:44;;;;;;;12.75;2.65;;;25.90;20.20;;;;;;5074593;28;20024;-47
2022/03/08 09:02:10;;;;;;;6.55;2.90;;;26.00;20.10;;;;;;5073247;28;20031;-41
2022/03/08 09:04:36;;;;;;;6.82;2.75;;;26.00;20.10;;;;;;5072066;28;20391;-41
2022/03/08 09:07:01;;;;;;;7.90;2.80;;;26.00;20.00;;;;;;5073987;28;20446;-41
2022/03/08 09:09:28;;;;;;;6.40;3.17;;;26.10;19.90;;;;;;5072755;28;20067;-40
2022/03/08 09:11:54;;;;;;;5.90;2.80;;;26.10;20.40;;;;;;5074260;28;20024;-39
2022/03/08 09:14:19;;;;;;;8.55;2.85;;;26.10;19.90;;;;;;5055458;28;20535;-40
2022/03/08 09:16:45;;;;;;;9.52;3.08;;;26.10;19.80;;;;;;5073033;28;20016;-42
2022/03/08 09:19:11;;;;;;;6.75;2.85;;;26.20;19.90;;;;;;5073493;28;20044;-39
2022/03/08 09:21:37;;;;;;;4.70;2.53;;;26.20;19.80;;;;;;5056442;28;20020;-42
2022/03/08 09:24:03;;;;;;;7.35;2.97;;;26.20;19.80;;;;;;5073507;28;20386;-40
2022/03/08 09:26:30;;;;;;;7.93;2.92;;;26.20;19.80;;;;;;5072618;28;20016;-40
2022/03/08 09:28:55;;;;;;;7.53;3.15;;;26.20;19.80;;;;;;5073114;28;20095;-41
2022/03/08 09:31:21;;;;;;;6.13;2.92;;;26.20;19.80;;;;;;5074016;28;20090;-40
2022/03/08 09:33:48;;;;;;;6.28;2.97;;;26.30;19.80;;;;;;5072263;28;20364;-41
2022/03/08 09:36:13;;;;;;;10.52;3.13;;;26.30;19.70;;;;;;5073823;28;20082;-40
2022/03/08 09:38:39;;;;;;;7.05;3.00;;;26.40;19.70;;;;;;5073429;28;20023;-38
2022/03/08 09:41:05;;;;;;;7.55;3.15;;;26.40;20.10;;;;;;5073350;28;20041;-40
2022/03/08 09:43:31;;;;;;;7.18;2.88;;;26.40;19.70;;;;;;5072562;28;20517;-38
2022/03/08 09:45:57;;;;;;;6.68;2.80;;;26.40;19.70;;;;;;5072313;28;20025;-39
2022/03/08 09:48:22;;;;;;;6.25;2.42;;;26.30;19.60;;;;;;5073854;28;20348;-40
2022/03/08 09:50:52;;;;;;;6.53;2.60;;;26.30;19.60;;;;;;5072134;28;20021;-41
2022/03/08 09:53:17;;;;;;;5.43;2.55;;;26.30;19.60;;;;;;5056750;28;20013;-43
2022/03/08 09:55:43;;;;;;;6.47;2.70;;;26.30;19.60;;;;;;5072370;28;20332;-41
2022/03/08 09:58:12;;;;;;;5.13;2.65;;;26.30;19.60;;;;;;5073588;28;20051;-40
2022/03/08 10:00:38;;;;;;;4.53;2.78;;;26.30;19.50;;;;;;5073483;28;20013;-41
2022/03/08 10:03:08;;;;;;;7.50;3.08;;;26.30;19.50;;;;;;5073979;28;20094;-40
2022/03/08 10:05:39;;;;;;;6.03;2.70;;;26.30;19.50;;;;;;5073738;28;20023;-42
2022/03/08 10:08:13;;;;;;;8.95;2.85;;;26.40;20.00;;;;;;5074150;28;20039;-41
2022/03/08 10:11:00;;;;;;;6.47;2.80;;;26.40;19.50;;;;;;5073606;28;20024;-40
2022/03/08 10:13:28;;;;;;;10.68;3.30;;;26.40;19.50;;;;;;5079240;28;20025;-42
2022/03/08 10:16:05;;;;;;;5.93;2.90;;;26.30;19.50;;;;;;5077722;28;20096;-42
2022/03/08 10:18:34;;;;;;;9.45;3.20;;;26.30;19.50;;;;;;5078033;28;20093;-40
2022/03/08 10:21:05;;;;;;;7.38;3.20;;;26.30;19.50;;;;;;5078436;28;20052;-41
2022/03/08 10:23:41;;;;;;;9.07;3.00;;;26.40;19.50;;;;;;5076691;28;20017;-42
2022/03/08 10:26:09;;;;;;;6.28;3.05;;;26.40;19.50;;;;;;5076062;28;20027;-40
2022/03/08 10:28:44;;;;;;;8.38;3.00;;;26.40;19.50;;;;;;5059140;28;20025;-39
2022/03/08 10:31:14;;;;;;;5.80;2.88;;;26.40;19.40;;;;;;5075482;28;20486;-45
2022/03/08 10:33:40;;;;;;;7.45;2.83;;;26.40;19.40;;;;;;5077529;28;20112;-40
2022/03/08 10:36:17;;;;;;;10.38;2.90;;;26.40;19.40;;;;;;5077550;28;20465;-41
2022/03/08 10:39:04;;;;;;;6.60;2.85;;;26.40;19.40;;;;;;5075942;28;20050;-40
2022/03/08 10:41:30;;;;;;;5.53;2.90;;;26.40;19.40;;;;;;5077779;28;20020;-40
2022/03/08 10:43:56;;;;;;;7.00;2.60;;;26.40;19.40;;;;;;5076634;28;20008;-40
2022/03/08 10:46:26;;;;;;;5.80;2.70;;;26.40;19.30;;;;;;5076005;28;20419;-41
2022/03/08 10:48:55;;;;;;;;;;;26.40;19.20;;;;;;5076785;28;20057;-40
2022/03/08 10:51:21;;;;;;;6.50;2.90;;;26.30;19.20;;;;;;5076173;28;20350;-40
2022/03/08 10:53:47;;;;;;;7.80;3.70;;;26.00;19.00;;;;;;5076126;28;20105;-41
2022/03/08 10:56:23;;;;;;;9.07;4.43;;;25.20;18.60;;;;;;5076469;28;20020;-40
2022/03/08 10:58:50;;;;;;;6.47;4.20;;;24.80;18.50;;;;;;5076901;28;20039;-40
2022/03/08 11:01:16;;;;;;;7.82;4.63;;;24.60;18.40;;;;;;5077329;28;20459;-41
2022/03/08 11:03:58;;;;;;;9.13;4.80;;;24.20;18.20;;;;;;5076585;28;20023;-40
2022/03/08 11:06:24;;;;;;;8.85;5.18;;;23.30;18.40;;;;;;5076169;28;20023;-44
2022/03/08 11:08:52;;;;;;;7.50;5.00;;;22.80;19.10;;;;;;5078581;28;20024;-42
2022/03/08 11:11:18;;;;;;;8.68;4.70;;;23.00;18.40;;;;;;5078263;28;20048;-48
2022/03/08 11:13:45;;;;;;;8.15;4.68;;;23.20;18.80;;;;;;5078167;28;20036;-42
2022/03/08 11:16:10;;;;;;;10.10;4.70;;;23.40;18.70;;;;;;5060281;28;20023;-45
2022/03/08 11:18:36;;;;;;;6.60;4.50;;;23.80;18.60;;;;;;5077910;28;20012;-45
2022/03/08 11:21:04;;;;;;;10.73;4.00;;;24.20;18.50;;;;;;5077400;28;20066;-48
2022/03/08 11:23:31;;;;;;;10.63;4.50;;;24.40;18.40;;;;;;5078648;28;20021;-46
2022/03/08 11:25:57;;;;;;;7.05;4.00;;;24.60;18.30;;;;;;5060581;28;20141;-46
2022/03/08 11:28:23;;;;;;;11.60;4.20;;;24.80;18.30;;;;;;5060972;28;20031;-46
2022/03/08 11:30:55;;;;;;;8.20;3.95;;;24.90;18.20;;;;;;5076966;28;20048;-42
2022/03/08 11:33:20;;;;;;;9.07;4.10;;;24.90;18.10;;;;;;5077359;28;20123;-44
2022/03/08 11:35:49;;;;;;;7.63;4.00;;;25.00;18.00;;;;;;5078731;28;20017;-45
2022/03/08 11:38:16;;;;;;;5.63;3.95;;;25.00;18.00;;;;;;5078605;28;20471;-47
2022/03/08 11:40:53;;;;;;;11.95;3.97;;;25.10;18.00;;;;;;5077218;28;20028;-45
2022/03/08 11:43:19;;;;;;;7.30;3.90;;;25.20;18.00;;;;;;5077055;28;20476;-47
2022/03/08 11:45:48;;;;;;;6.13;3.60;;;25.30;18.00;;;;;;5075494;28;20712;-41
2022/03/08 11:48:14;;;;;;;5.85;3.30;;;25.50;18.00;;;;;;5072752;28;20020;-44
2022/03/08 11:50:44;;;;;;;8.80;4.13;;;25.50;18.00;;;;;;5073005;28;20024;-44
2022/03/08 11:53:17;;;;;;;19.13;4.40;;;25.00;18.30;;;;;;5075641;28;20025;-42
2022/03/08 11:55:43;;;;;;;16.08;4.63;;;24.50;19.20;;;;;;5075410;28;20104;-41
2022/03/08 11:58:18;;;;;;;13.15;4.70;;;24.10;19.60;;;;;;5075201;28;20019;-41
2022/03/08 12:00:51;;;;;;;16.10;4.68;;;24.00;19.80;;;;;;5075728;28;20017;-42
2022/03/08 12:03:23;;;;;;;14.48;5.18;;;23.90;19.80;;;;;;5076156;28;20052;-50
2022/03/08 12:06:06;;;;;;;12.35;5.20;;;23.20;20.20;;;;;;5074651;28;20514;-42
2022/03/08 12:08:31;;;;;;;11.23;4.78;;;23.30;20.00;;;;;;5073577;28;20024;-41
2022/03/08 12:11:20;;;;;;;9.45;5.47;;;23.40;20.00;;;;;;5073497;28;20024;-39
2022/03/08 12:13:49;;;;;;;10.63;5.90;;;22.80;19.70;;;;;;5071985;28;20146;-41
2022/03/08 12:16:24;;;;;;;8.63;5.90;;;22.50;19.50;;;;;;5073693;28;20013;-39
2022/03/08 12:18:51;;;;;;;11.18;5.68;;;22.50;19.50;;;;;;5074050;28;20352;-38
2022/03/08 12:21:16;;;;;;;11.82;5.60;;;22.70;19.40;;;;;;5072361;28;20016;-39
2022/03/08 12:23:55;;;;;;;6.45;5.60;;;22.90;19.50;;;;;;5072984;28;20463;-39
2022/03/08 12:26:27;;;;;;;11.73;5.50;;;23.00;19.40;;;;;;5071699;28;20017;-38
2022/03/08 12:29:05;;;;;;;8.05;5.13;;;23.10;19.40;;;;;;5071764;28;20012;-39
2022/03/08 12:31:30;;;;;;;9.27;5.70;;;23.10;19.50;;;;;;5073533;28;20016;-39
2022/03/08 12:34:09;;;;;;;10.82;5.32;;;23.10;19.40;;;;;;5071362;28;20023;-39
2022/03/08 12:36:35;;;;;;;10.68;5.45;;;23.00;19.50;;;;;;5071934;28;20038;-38
2022/03/08 12:39:01;;;;;;;12.93;5.68;;;23.00;19.50;;;;;;5071369;28;20020;-38
2022/03/08 12:41:27;;;;;;;11.45;5.70;;;22.70;19.10;;;;;;5072878;28;20039;-39
2022/03/08 12:44:02;;;;;;;9.80;5.43;;;22.60;19.40;;;;;;5055960;28;20131;-39